Time;durP1;ratioP1;P1;durP2;ratioP2;P2;SDS_P1;SDS_P2;PMS_P1;PMS_P2;Temp;Humidity;BMP_temperature;BMP_pressure;BME280_temperature;BME280_humidity;BME280_pressure;Samples;Min_cycle;Max_cycle;Signal;HPM_P1;HPM_P2
2023/09/19 00:00:40;;;;;;;0.20;0.20;;;;;;;18.54;89.22;95156.50;4363136;32;20204;-64
2023/09/19 00:03:07;;;;;;;0.10;0.10;;;;;;;18.47;88.87;95154.44;4347975;32;20324;-64
2023/09/19 00:05:38;;;;;;;0.43;0.43;;;;;;;18.60;88.43;95154.34;4343835;32;20225;-64
2023/09/19 00:08:05;;;;;;;0.30;0.30;;;;;;;18.55;88.12;95156.16;4355979;32;20207;-64
2023/09/19 00:10:34;;;;;;;0.30;0.30;;;;;;;18.75;87.83;95148.19;4366407;32;20205;-65
2023/09/19 00:13:07;;;;;;;0.13;0.13;;;;;;;18.64;86.26;95147.16;4359477;32;20232;-64
2023/09/19 00:15:50;;;;;;;5.07;0.60;;;;;;;18.73;88.12;95147.75;4349631;32;20263;-64
2023/09/19 00:18:21;;;;;;;0.00;0.00;;;;;;;18.82;87.57;95142.97;4334715;32;20210;-64
2023/09/19 00:20:51;;;;;;;0.30;0.30;;;;;;;18.85;86.37;95142.28;4357462;32;20226;-62
2023/09/19 00:23:17;;;;;;;0.27;0.27;;;;;;;18.82;85.66;95151.03;4362186;32;20228;-62
2023/09/19 00:25:43;;;;;;;0.20;0.20;;;;;;;18.74;87.11;95149.31;4353601;32;20193;-65
2023/09/19 00:28:10;;;;;;;0.53;0.27;;;;;;;18.82;87.23;95148.34;4371428;32;20295;-64
2023/09/19 00:30:36;;;;;;;0.20;0.20;;;;;;;18.90;86.49;95158.16;4375940;32;20201;-64
2023/09/19 00:33:05;;;;;;;0.33;0.33;;;;;;;18.82;84.83;95156.41;4354339;32;20190;-64
2023/09/19 00:35:33;;;;;;;0.10;0.10;;;;;;;18.96;86.60;95164.78;4311645;32;20303;-65
2023/09/19 00:38:01;;;;;;;0.17;0.10;;;;;;;18.87;86.72;95158.84;4371225;32;20189;-65
2023/09/19 00:40:29;;;;;;;0.37;0.37;;;;;;;18.93;86.73;95162.03;4376876;32;20172;-64
2023/09/19 00:43:05;;;;;;;0.37;0.37;;;;;;;18.91;87.25;95159.72;4340942;32;20235;-64
2023/09/19 00:45:32;;;;;;;0.30;0.30;;;;;;;18.74;88.04;95162.75;4329898;32;20215;-65
2023/09/19 00:48:10;;;;;;;0.47;0.47;;;;;;;18.77;86.02;95162.06;4358576;32;20239;-64
2023/09/19 00:50:42;;;;;;;2.13;0.93;;;;;;;18.79;87.71;95162.50;4361977;32;20294;-65
2023/09/19 00:53:14;;;;;;;0.87;0.83;;;;;;;18.78;87.08;95158.25;4357862;32;20210;-64
2023/09/19 00:55:43;;;;;;;0.40;0.40;;;;;;;18.76;86.78;95165.88;4316997;32;20196;-65
2023/09/19 00:58:10;;;;;;;0.40;0.40;;;;;;;18.86;88.25;95170.72;4363859;32;20361;-65
2023/09/19 01:00:38;;;;;;;0.67;0.40;;;;;;;18.75;87.58;95169.69;4336698;32;20181;-64
2023/09/19 01:03:06;;;;;;;0.27;0.27;;;;;;;18.70;87.48;95172.66;4338856;32;20232;-64
2023/09/19 01:05:38;;;;;;;0.50;0.43;;;;;;;18.67;87.80;95179.50;4340798;32;20231;-64
2023/09/19 01:08:06;;;;;;;0.70;0.70;;;;;;;18.69;87.59;95174.56;4359144;32;20281;-64
2023/09/19 01:10:33;;;;;;;0.37;0.37;;;;;;;18.74;87.49;95184.25;4358296;32;20201;-64
2023/09/19 01:13:26;;;;;;;0.40;0.40;;;;;;;18.69;87.23;95187.22;4328827;32;20210;-63
2023/09/19 01:16:33;;;;;;;0.40;0.30;;;;;;;18.83;88.01;95192.91;4331329;32;20205;-62
2023/09/19 01:19:38;;;;;;;0.43;0.43;;;;;;;18.63;86.18;95185.91;4326116;32;20248;-63
2023/09/19 01:22:21;;;;;;;0.30;0.30;;;;;;;18.62;88.43;95198.56;4290568;33;20241;-63
2023/09/19 01:25:28;;;;;;;0.30;0.30;;;;;;;18.68;88.44;95201.78;4279025;33;20194;-61
2023/09/19 01:28:29;;;;;;;0.43;0.43;;;;;;;18.73;88.46;95198.81;4357949;32;20246;-63
2023/09/19 01:31:03;;;;;;;0.10;0.10;;;;;;;18.71;88.20;95195.69;4345641;32;20230;-63
2023/09/19 01:33:59;;;;;;;0.53;0.53;;;;;;;18.61;87.05;95201.59;4321576;32;20189;-63
2023/09/19 01:36:26;;;;;;;0.20;0.20;;;;;;;18.69;87.52;95206.81;4335425;32;20184;-63
2023/09/19 01:38:54;;;;;;;0.20;0.20;;;;;;;18.67;87.12;95205.59;4335463;32;20184;-63
2023/09/19 01:41:33;;;;;;;0.10;0.10;;;;;;;18.75;88.16;95207.31;4351439;32;20222;-63
2023/09/19 01:44:03;;;;;;;0.30;0.30;;;;;;;18.73;88.40;95218.41;4347075;32;20212;-63
2023/09/19 01:46:40;;;;;;;0.47;0.47;;;;;;;18.65;87.58;95215.91;4340123;32;20239;-63
2023/09/19 01:49:49;;;;;;;0.10;0.10;;;;;;;18.73;88.38;95221.09;4344142;32;20345;-63
2023/09/19 01:52:21;;;;;;;0.40;0.40;;;;;;;18.62;87.95;95222.75;4343672;32;20206;-62
2023/09/19 01:54:51;;;;;;;0.40;0.33;;;;;;;18.66;87.90;95230.91;4338224;32;20213;-60
2023/09/19 01:57:35;;;;;;;0.43;0.43;;;;;;;18.74;87.86;95221.87;4358265;32;20185;-62
2023/09/19 02:00:11;;;;;;;0.73;0.47;;;;;;;18.74;86.49;95216.50;4325766;32;20199;-64
2023/09/19 02:02:44;;;;;;;0.53;0.53;;;;;;;18.73;87.27;95228.38;4343505;32;20203;-64
2023/09/19 02:05:12;;;;;;;0.77;0.40;;;;;;;18.74;86.77;95224.56;4352489;32;20234;-64
2023/09/19 02:07:40;;;;;;;0.20;0.20;;;;;;;18.87;86.84;95215.28;4343005;32;20363;-64
2023/09/19 02:10:11;;;;;;;0.40;0.40;;;;;;;18.82;86.99;95221.72;4340794;32;20193;-64
2023/09/19 02:12:38;;;;;;;0.20;0.20;;;;;;;18.84;86.23;95222.16;4350449;32;20268;-64
2023/09/19 02:15:08;;;;;;;1.07;0.53;;;;;;;18.86;86.75;95224.50;4335011;32;20243;-64
2023/09/19 02:17:34;;;;;;;0.20;0.20;;;;;;;18.79;85.89;95219.72;4340829;32;20208;-64
2023/09/19 02:20:09;;;;;;;0.67;0.40;;;;;;;18.79;86.62;95219.72;4334261;32;20237;-64
2023/09/19 02:22:39;;;;;;;0.37;0.37;;;;;;;18.80;86.54;95220.50;4351096;32;20228;-64
2023/09/19 02:25:05;;;;;;;0.30;0.30;;;;;;;18.60;85.26;95222.31;4350862;32;20185;-64
2023/09/19 02:27:31;;;;;;;0.20;0.20;;;;;;;18.76;86.76;95215.03;4357907;32;20188;-64
2023/09/19 02:29:57;;;;;;;0.20;0.20;;;;;;;18.84;86.01;95214.09;4303354;32;20212;-64
2023/09/19 02:32:23;;;;;;;0.30;0.30;;;;;;;18.70;85.92;95221.81;4359231;32;20189;-63
2023/09/19 02:34:51;;;;;;;0.23;0.23;;;;;;;18.67;85.68;95221.72;4358347;32;20203;-63
2023/09/19 02:37:19;;;;;;;0.20;0.20;;;;;;;18.82;86.50;95218.25;4365661;32;20207;-63
2023/09/19 02:39:49;;;;;;;0.30;0.30;;;;;;;18.84;86.33;95216.78;4365071;32;20188;-64
2023/09/19 02:42:16;;;;;;;0.07;0.07;;;;;;;18.83;85.84;95230.56;4337775;32;20193;-64
2023/09/19 02:44:42;;;;;;;0.23;0.23;;;;;;;18.75;86.08;95228.81;4330903;32;20198;-64
2023/09/19 02:47:09;;;;;;;0.30;0.30;;;;;;;18.60;85.31;95232.28;4346960;32;20227;-64
2023/09/19 02:49:36;;;;;;;0.40;0.40;;;;;;;18.75;86.13;95224.22;4350478;32;20197;-64
2023/09/19 02:52:04;;;;;;;0.73;0.43;;;;;;;18.83;85.08;95225.19;4335437;32;20197;-64
2023/09/19 02:54:29;;;;;;;0.20;0.20;;;;;;;18.77;85.79;95231.94;4353298;32;20193;-64
2023/09/19 02:56:56;;;;;;;0.10;0.10;;;;;;;18.84;85.88;95227.53;4360225;32;20311;-64
2023/09/19 02:59:24;;;;;;;0.20;0.20;;;;;;;18.82;85.85;95229.00;4360023;32;20206;-64
2023/09/19 03:01:51;;;;;;;0.10;0.10;;;;;;;18.78;86.07;95238.88;4334169;32;20226;-63
2023/09/19 03:04:19;;;;;;;0.30;0.30;;;;;;;18.81;86.85;95232.81;4347169;32;20302;-62
2023/09/19 03:06:46;;;;;;;0.23;0.23;;;;;;;18.62;85.83;95232.72;4340444;32;20193;-64
2023/09/19 03:09:13;;;;;;;0.23;0.23;;;;;;;18.74;84.94;95225.34;4365454;32;20184;-64
2023/09/19 03:11:41;;;;;;;0.70;0.70;;;;;;;18.74;85.41;95228.03;4359684;32;20290;-64
2023/09/19 03:14:09;;;;;;;0.00;0.00;;;;;;;18.77;85.45;95221.97;4359817;32;20193;-64
2023/09/19 03:16:38;;;;;;;0.10;0.10;;;;;;;18.73;84.84;95225.69;4357372;32;25883;-64
2023/09/19 03:19:03;;;;;;;0.40;0.10;;;;;;;18.58;85.48;95224.53;4320371;32;20216;-65
2023/09/19 03:21:30;;;;;;;0.30;0.30;;;;;;;18.72;85.27;95235.66;4354828;32;20189;-65
2023/09/19 03:23:59;;;;;;;0.40;0.40;;;;;;;18.49;85.83;95230.09;4331417;32;20201;-64
2023/09/19 03:26:26;;;;;;;0.13;0.13;;;;;;;18.67;85.25;95232.47;4341891;32;20221;-65
2023/09/19 03:28:53;;;;;;;0.27;0.27;;;;;;;18.50;85.24;95234.31;4352130;32;20189;-64
2023/09/19 03:31:19;;;;;;;0.30;0.30;;;;;;;18.50;85.94;95233.53;4348722;32;20192;-65
2023/09/19 03:33:45;;;;;;;0.20;0.20;;;;;;;18.51;85.41;95235.88;4347443;32;20197;-64
2023/09/19 03:36:13;;;;;;;0.20;0.20;;;;;;;18.52;85.96;95237.44;4361435;32;20201;-65
2023/09/19 03:38:38;;;;;;;0.10;0.10;;;;;;;18.52;85.41;95237.44;4362416;32;20203;-64
2023/09/19 03:41:05;;;;;;;0.10;0.10;;;;;;;18.53;85.56;95239.00;4333003;32;20232;-65
2023/09/19 03:43:32;;;;;;;0.30;0.30;;;;;;;18.54;86.06;95245.94;4325152;32;20190;-65
2023/09/19 03:46:04;;;;;;;0.30;0.30;;;;;;;18.59;85.63;95246.81;4330540;32;20193;-64
2023/09/19 03:48:30;;;;;;;0.17;0.17;;;;;;;18.48;83.37;95243.88;4340612;32;20260;-64
2023/09/19 03:50:57;;;;;;;3.40;0.47;;;;;;;18.48;84.97;95251.94;4358937;32;20193;-64
2023/09/19 03:53:24;;;;;;;0.20;0.20;;;;;;;18.49;83.93;95248.91;4363387;32;20193;-64
2023/09/19 03:55:50;;;;;;;0.50;0.50;;;;;;;18.50;84.84;95245.06;4373577;32;20215;-62
2023/09/19 03:58:18;;;;;;;1.33;0.63;;;;;;;18.47;85.16;95245.78;4368683;32;20197;-64
2023/09/19 04:00:45;;;;;;;0.30;0.30;;;;;;;18.44;85.03;95254.53;4371898;32;20319;-65
2023/09/19 04:03:19;;;;;;;0.13;0.13;;;;;;;18.29;82.76;95249.12;4360206;32;20211;-65
2023/09/19 04:05:47;;;;;;;7.73;0.80;;;;;;;18.35;85.37;95243.16;4366382;32;20262;-65
2023/09/19 04:08:17;;;;;;;1.17;1.07;;;;;;;18.35;85.57;95247.75;4323243;32;20208;-64
2023/09/19 04:10:45;;;;;;;0.60;0.50;;;;;;;18.33;84.50;95250.75;4349533;32;20200;-64
2023/09/19 04:13:11;;;;;;;0.30;0.30;;;;;;;18.43;85.45;95252.97;4355733;32;20217;-64
2023/09/19 04:15:40;;;;;;;0.10;0.10;;;;;;;18.37;83.08;95248.97;4353760;32;20272;-64
2023/09/19 04:18:07;;;;;;;0.57;0.50;;;;;;;18.38;82.90;95258.56;4359123;32;20266;-64
2023/09/19 04:20:35;;;;;;;1.13;0.23;;;;;;;18.39;85.10;95254.78;4358045;32;20192;-64
2023/09/19 04:23:05;;;;;;;0.30;0.30;;;;;;;18.29;82.91;95260.63;4341145;32;20241;-64
2023/09/19 04:25:32;;;;;;;0.10;0.10;;;;;;;18.38;83.84;95268.53;4358341;32;20204;-64
2023/09/19 04:27:59;;;;;;;0.20;0.20;;;;;;;18.43;83.85;95255.66;4360653;32;20224;-64
2023/09/19 04:30:26;;;;;;;0.30;0.30;;;;;;;18.33;85.10;95261.50;4336681;32;20200;-64
2023/09/19 04:32:53;;;;;;;0.40;0.40;;;;;;;18.23;82.50;95270.09;4346080;32;20193;-64
2023/09/19 04:35:18;;;;;;;0.33;0.27;;;;;;;18.38;85.98;95269.31;4340108;32;20208;-64
2023/09/19 04:37:45;;;;;;;0.40;0.40;;;;;;;18.22;83.84;95273.88;4367090;32;20208;-64
2023/09/19 04:40:12;;;;;;;0.43;0.43;;;;;;;18.21;83.66;95283.06;4373268;32;20189;-64
2023/09/19 04:42:40;;;;;;;0.27;0.27;;;;;;;18.24;85.11;95273.53;4361110;32;20197;-64
2023/09/19 04:45:10;;;;;;;0.43;0.43;;;;;;;18.10;84.33;95280.06;4329745;32;20201;-64
2023/09/19 04:47:38;;;;;;;0.30;0.30;;;;;;;18.20;82.71;95278.81;4341175;32;20204;-64
2023/09/19 04:50:14;;;;;;;1.10;0.63;;;;;;;18.20;82.95;95287.66;4287009;32;20259;-64
2023/09/19 04:52:44;;;;;;;1.03;0.40;;;;;;;18.27;84.34;95291.66;4325601;32;20296;-64
2023/09/19 04:55:17;;;;;;;0.30;0.30;;;;;;;18.14;84.24;95289.00;4358928;32;20268;-64
2023/09/19 04:57:58;;;;;;;0.30;0.30;;;;;;;18.12;84.60;95301.22;4348167;32;20239;-64
2023/09/19 05:00:27;;;;;;;0.27;0.27;;;;;;;18.24;82.61;95301.19;4358534;32;20197;-64
2023/09/19 05:02:57;;;;;;;0.17;0.17;;;;;;;18.12;83.32;95303.91;4347211;32;20209;-64
2023/09/19 05:05:25;;;;;;;1.07;0.50;;;;;;;18.08;84.14;95297.66;4350297;32;20210;-64
2023/09/19 05:07:56;;;;;;;0.33;0.33;;;;;;;18.12;83.16;95302.00;4327730;32;20220;-64
2023/09/19 05:10:24;;;;;;;0.93;0.50;;;;;;;18.07;84.97;95307.63;4342922;32;20189;-64
2023/09/19 05:12:55;;;;;;;0.50;0.50;;;;;;;18.11;83.63;95313.06;4314475;32;20248;-64
2023/09/19 05:15:21;;;;;;;0.37;0.37;;;;;;;18.22;84.40;95319.53;4321013;32;20232;-63
2023/09/19 05:17:54;;;;;;;0.20;0.20;;;;;;;18.01;82.72;95324.31;4346116;32;20208;-64
2023/09/19 05:20:25;;;;;;;0.53;0.53;;;;;;;18.03;83.12;95324.75;4324788;32;20212;-63
2023/09/19 05:23:12;;;;;;;0.27;0.27;;;;;;;18.17;83.43;95327.84;4345886;32;20181;-63
2023/09/19 05:25:39;;;;;;;0.27;0.27;;;;;;;18.11;81.83;95335.34;4359607;32;20326;-64
2023/09/19 05:28:15;;;;;;;1.07;0.60;;;;;;;18.15;84.37;95336.22;4337158;32;20200;-64
2023/09/19 05:30:43;;;;;;;1.10;0.60;;;;;;;18.14;84.14;95336.56;4307121;33;20201;-65
2023/09/19 05:33:10;;;;;;;0.57;0.47;;;;;;;18.14;83.08;95336.56;4334253;32;20261;-64
2023/09/19 05:35:39;;;;;;;0.30;0.30;;;;;;;18.20;84.00;95343.28;4310671;32;20432;-64
2023/09/19 05:38:08;;;;;;;0.50;0.50;;;;;;;18.08;82.94;95343.31;4348807;32;20230;-64
2023/09/19 05:40:36;;;;;;;0.63;0.30;;;;;;;18.11;83.83;95343.41;4323577;32;20240;-64
2023/09/19 05:43:05;;;;;;;0.10;0.10;;;;;;;18.08;82.66;95346.75;4324361;32;20232;-64
2023/09/19 05:45:32;;;;;;;0.30;0.30;;;;;;;18.12;83.21;95346.88;4360469;32;20185;-63
2023/09/19 05:48:08;;;;;;;1.13;0.40;;;;;;;18.13;82.69;95356.47;4323947;32;20249;-64
2023/09/19 05:50:34;;;;;;;0.23;0.23;;;;;;;17.97;83.16;95355.62;4344969;32;20234;-64
2023/09/19 05:53:00;;;;;;;0.40;0.40;;;;;;;17.97;83.33;95358.31;4360476;32;20227;-64
2023/09/19 05:55:29;;;;;;;0.30;0.30;;;;;;;18.08;85.09;95362.13;4368218;32;20200;-63
2023/09/19 05:57:55;;;;;;;0.63;0.40;;;;;;;18.00;83.79;95355.75;4362705;32;20244;-63
2023/09/19 06:00:29;;;;;;;0.40;0.23;;;;;;;18.17;85.28;95360.06;4341776;32;20207;-62
2023/09/19 06:03:01;;;;;;;1.40;0.63;;;;;;;18.13;84.95;95359.94;4341636;32;20271;-63
2023/09/19 06:05:30;;;;;;;0.10;0.10;;;;;;;18.24;84.59;95368.31;4344389;32;20204;-63
2023/09/19 06:07:58;;;;;;;0.00;0.00;;;;;;;18.14;83.89;95372.25;4352318;32;20256;-64
2023/09/19 06:10:27;;;;;;;0.40;0.33;;;;;;;18.00;82.37;95371.06;4340458;32;20315;-64
2023/09/19 06:12:54;;;;;;;3.40;0.50;;;;;;;18.03;82.76;95375.78;4331212;32;20314;-64
2023/09/19 06:15:24;;;;;;;1.80;0.87;;;;;;;18.06;83.33;95373.19;4343974;32;20267;-62
2023/09/19 06:17:55;;;;;;;2.90;0.40;;;;;;;18.07;83.20;95377.44;4331365;32;20309;-64
2023/09/19 06:20:25;;;;;;;0.20;0.20;;;;;;;18.09;82.84;95374.37;4309209;32;20246;-64
2023/09/19 06:22:51;;;;;;;0.10;0.10;;;;;;;18.21;82.83;95379.75;4368797;32;20201;-63
2023/09/19 06:25:20;;;;;;;0.23;0.23;;;;;;;18.12;81.99;95373.72;4344131;32;20192;-63
2023/09/19 06:27:51;;;;;;;0.37;0.37;;;;;;;17.94;81.92;95380.47;4386054;32;20242;-64
2023/09/19 06:30:25;;;;;;;0.67;0.37;;;;;;;18.06;81.89;95383.16;4348833;32;20196;-63
2023/09/19 06:32:56;;;;;;;8.80;0.83;;;;;;;18.06;82.17;95380.47;4349611;32;20242;-63
2023/09/19 06:35:26;;;;;;;0.00;0.00;;;;;;;18.06;82.01;95377.78;4370611;32;20204;-63
2023/09/19 06:37:53;;;;;;;0.23;0.23;;;;;;;18.03;82.95;95381.91;4371678;32;20207;-64
2023/09/19 06:40:19;;;;;;;0.63;0.57;;;;;;;18.05;82.01;95378.91;4364002;32;20202;-64
2023/09/19 06:42:50;;;;;;;0.87;0.60;;;;;;;18.05;82.04;95378.91;4375520;32;20202;-64
2023/09/19 06:45:18;;;;;;;0.40;0.40;;;;;;;17.99;82.71;95390.97;4345821;32;20201;-64
2023/09/19 06:47:50;;;;;;;0.20;0.20;;;;;;;18.12;82.21;95384.47;4314781;32;20289;-65
2023/09/19 06:50:22;;;;;;;3.80;0.63;;;;;;;18.01;82.04;95394.91;4361016;32;20189;-64
2023/09/19 06:52:51;;;;;;;0.20;0.20;;;;;;;17.96;82.59;95399.72;4270473;32;20202;-64
2023/09/19 06:55:20;;;;;;;0.20;0.20;;;;;;;18.03;82.39;95398.03;4327611;32;20238;-64
2023/09/19 06:57:54;;;;;;;0.50;0.47;;;;;;;17.94;82.56;95400.03;4353599;32;20234;-64
2023/09/19 07:00:23;;;;;;;0.20;0.20;;;;;;;17.95;82.62;95406.19;4313054;32;20193;-63
2023/09/19 07:03:07;;;;;;;0.40;0.40;;;;;;;17.95;82.99;95406.97;4336461;32;20201;-64
2023/09/19 07:05:38;;;;;;;0.37;0.37;;;;;;;17.94;83.17;95400.03;4350552;32;20230;-64
2023/09/19 07:08:06;;;;;;;0.30;0.30;;;;;;;18.02;82.62;95409.09;4356928;32;20197;-65
2023/09/19 07:10:36;;;;;;;0.30;0.20;;;;;;;18.06;82.60;95410.00;4355220;32;20215;-64
2023/09/19 07:13:08;;;;;;;0.20;0.20;;;;;;;18.18;82.63;95402.69;4322546;32;20197;-64
2023/09/19 07:15:38;;;;;;;0.33;0.33;;;;;;;18.12;81.69;95406.72;4349705;32;20211;-64
2023/09/19 07:18:10;;;;;;;0.30;0.30;;;;;;;18.19;81.96;95422.28;4362419;32;20216;-64
2023/09/19 07:20:38;;;;;;;0.50;0.50;;;;;;;18.15;81.92;95416.00;4323213;32;20193;-64
2023/09/19 07:23:04;;;;;;;0.70;0.70;;;;;;;18.03;81.93;95418.72;4337553;32;20189;-64
2023/09/19 07:25:30;;;;;;;0.83;0.40;;;;;;;18.12;82.57;95425.53;4362493;32;20208;-64
2023/09/19 07:27:59;;;;;;;2.30;1.30;;;;;;;18.18;82.63;95420.72;4361978;32;20211;-64
2023/09/19 07:30:30;;;;;;;0.40;0.40;;;;;;;18.29;82.34;95424.47;4353718;32;20203;-64
2023/09/19 07:32:57;;;;;;;2.20;0.50;;;;;;;18.40;81.91;95433.63;4359996;32;20227;-64
2023/09/19 07:35:27;;;;;;;0.63;0.30;;;;;;;18.28;81.84;95424.84;4329042;32;20201;-64
2023/09/19 07:37:53;;;;;;;0.30;0.30;;;;;;;18.24;82.24;95432.78;4347334;32;20200;-64
2023/09/19 07:40:23;;;;;;;0.10;0.10;;;;;;;18.30;82.38;95434.09;4355928;32;20196;-63
2023/09/19 07:42:48;;;;;;;0.43;0.43;;;;;;;18.40;82.55;95430.16;4374670;32;20201;-64
2023/09/19 07:45:16;;;;;;;0.30;0.30;;;;;;;18.42;83.39;95431.41;4357568;32;20197;-64
2023/09/19 07:47:47;;;;;;;0.10;0.10;;;;;;;18.38;82.20;95430.50;4352201;32;20200;-64
2023/09/19 07:50:18;;;;;;;0.37;0.37;;;;;;;18.48;82.78;95419.28;4361657;32;20196;-64
2023/09/19 07:52:46;;;;;;;0.57;0.57;;;;;;;18.50;81.75;95417.03;4337275;32;20189;-64
2023/09/19 07:55:17;;;;;;;0.10;0.10;;;;;;;18.56;82.52;95428.31;4350857;32;20181;-64
2023/09/19 07:57:56;;;;;;;1.23;0.40;;;;;;;18.48;82.41;95431.94;4349802;32;20192;-64
2023/09/19 08:00:23;;;;;;;6.60;0.73;;;;;;;18.55;82.15;95429.44;4362484;32;20247;-64
2023/09/19 08:02:49;;;;;;;0.40;0.40;;;;;;;18.74;81.53;95431.53;4362677;32;20212;-64
2023/09/19 08:05:20;;;;;;;0.20;0.20;;;;;;;18.77;82.04;95431.62;4356134;32;20256;-64
2023/09/19 08:07:50;;;;;;;0.30;0.30;;;;;;;18.74;82.22;95436.91;4371408;32;20193;-64
2023/09/19 08:10:19;;;;;;;0.10;0.10;;;;;;;18.87;81.69;95433.84;4363587;32;20233;-64
2023/09/19 08:12:48;;;;;;;0.60;0.60;;;;;;;18.91;81.86;95444.69;4349428;32;20192;-64
2023/09/19 08:15:19;;;;;;;0.53;0.53;;;;;;;18.94;80.71;95438.59;4332494;32;20197;-64
2023/09/19 08:17:47;;;;;;;0.27;0.27;;;;;;;18.95;80.99;95437.47;4374324;32;20253;-64
2023/09/19 08:20:19;;;;;;;0.33;0.13;;;;;;;18.91;81.20;95439.31;4342151;32;20184;-64
2023/09/19 08:22:54;;;;;;;0.60;0.50;;;;;;;19.06;81.49;95435.09;4298163;32;20177;-64
2023/09/19 08:25:25;;;;;;;0.43;0.43;;;;;;;19.22;80.87;95436.69;4361217;32;20247;-63
2023/09/19 08:27:51;;;;;;;0.00;0.00;;;;;;;19.28;79.87;95433.75;4349713;32;20205;-64
2023/09/19 08:30:23;;;;;;;0.53;0.53;;;;;;;19.27;80.38;95429.50;4348389;32;20231;-64
2023/09/19 08:33:00;;;;;;;0.47;0.47;;;;;;;19.20;79.36;95438.94;4320277;32;20269;-64
2023/09/19 08:35:30;;;;;;;0.30;0.30;;;;;;;19.09;79.44;95443.25;4360932;32;20189;-64
2023/09/19 08:37:57;;;;;;;0.10;0.10;;;;;;;19.16;80.04;95443.44;4341135;32;20242;-64
2023/09/19 08:40:23;;;;;;;0.00;0.00;;;;;;;19.25;79.47;95429.03;4354446;32;20200;-64
2023/09/19 08:42:58;;;;;;;0.30;0.30;;;;;;;19.29;79.12;95441.47;4340162;32;20235;-61
2023/09/19 08:45:29;;;;;;;0.40;0.40;;;;;;;19.28;79.23;95434.53;4334290;32;20239;-64
2023/09/19 08:48:29;;;;;;;0.10;0.10;;;;;;;19.28;80.07;95429.16;4354898;32;20190;-64
2023/09/19 08:51:48;;;;;;;0.10;0.10;;;;;;;19.33;78.04;95436.19;4360612;32;20188;-64
2023/09/19 08:54:27;;;;;;;0.30;0.30;;;;;;;19.29;76.86;95436.09;4345016;32;20181;-65
2023/09/19 08:57:03;;;;;;;0.30;0.30;;;;;;;19.26;76.56;95442.16;4349829;32;20228;-64
2023/09/19 08:59:35;;;;;;;0.10;0.10;;;;;;;19.35;76.86;95439.28;4357655;32;20192;-64
2023/09/19 09:02:03;;;;;;;0.50;0.50;;;;;;;19.48;76.48;95438.09;4372950;32;20188;-64
2023/09/19 09:04:33;;;;;;;0.00;0.00;;;;;;;19.59;77.02;95441.84;4349776;32;20214;-64
2023/09/19 09:07:05;;;;;;;1.63;0.67;;;;;;;19.65;76.15;95440.47;4329912;32;20219;-64
2023/09/19 09:09:31;;;;;;;0.20;0.20;;;;;;;19.66;74.83;95446.62;4367898;32;20213;-61
2023/09/19 09:12:02;;;;;;;1.50;0.30;;;;;;;19.70;74.63;95444.81;4355385;32;20200;-62
2023/09/19 09:14:29;;;;;;;0.37;0.37;;;;;;;19.75;74.83;95448.00;4360796;32;20198;-63
2023/09/19 09:16:58;;;;;;;0.17;0.17;;;;;;;19.67;74.91;95451.66;4362829;32;20193;-63
2023/09/19 09:19:26;;;;;;;0.13;0.13;;;;;;;19.62;76.21;95460.00;4360911;32;20230;-63
2023/09/19 09:21:51;;;;;;;0.23;0.23;;;;;;;19.62;74.47;95460.00;4361228;32;20247;-63
2023/09/19 09:24:29;;;;;;;0.17;0.17;;;;;;;19.52;74.45;95455.94;4354946;32;20242;-63
2023/09/19 09:26:58;;;;;;;0.33;0.33;;;;;;;19.57;74.52;95465.63;4334284;32;20231;-63
2023/09/19 09:29:57;;;;;;;0.53;0.53;;;;;;;19.49;73.99;95466.56;4362899;32;20277;-62
2023/09/19 09:32:41;;;;;;;0.37;0.37;;;;;;;19.49;73.59;95458.50;4357062;32;20188;-62
2023/09/19 09:35:19;;;;;;;0.20;0.20;;;;;;;19.52;73.67;95460.53;4361332;32;22918;-63
2023/09/19 09:37:47;;;;;;;0.47;0.47;;;;;;;19.64;72.62;95457.75;4359321;32;20309;-63
2023/09/19 09:42:39;;;;;;;1.07;1.07;;;;;;;19.89;72.09;95450.28;4361724;32;20248;-63
2023/09/19 09:45:15;;;;;;;0.17;0.17;;;;;;;20.05;71.79;95450.25;4354125;32;20258;-63
2023/09/19 09:47:44;;;;;;;0.10;0.10;;;;;;;20.10;70.37;95458.06;4369908;32;20189;-63
2023/09/19 09:50:17;;;;;;;0.37;0.37;;;;;;;20.24;69.77;95458.37;4348636;32;20181;-63
2023/09/19 09:52:46;;;;;;;0.10;0.10;;;;;;;20.27;68.07;95449.59;4360734;32;20185;-63
2023/09/19 09:55:13;;;;;;;0.30;0.30;;;;;;;20.35;67.91;95447.84;4358493;32;20207;-62
2023/09/19 09:57:41;;;;;;;0.93;0.93;;;;;;;20.45;68.37;95464.25;4354992;32;20295;-62
2023/09/19 10:02:36;;;;;;;0.50;0.30;;;;;;;20.45;67.38;95452.69;4341664;32;20239;-63
2023/09/19 10:07:53;;;;;;;0.93;0.93;;;;;;;20.42;67.11;95448.78;4358586;32;20193;-63
2023/09/19 10:10:53;;;;;;;1.23;1.23;;;;;;;20.58;66.90;95452.19;4354925;32;20212;-63
2023/09/19 10:13:23;;;;;;;0.40;0.40;;;;;;;20.65;67.56;95454.28;4361727;32;20199;-62
2023/09/19 10:15:53;;;;;;;0.40;0.37;;;;;;;20.83;68.10;95454.62;4360538;32;20227;-62
2023/09/19 10:18:23;;;;;;;1.13;0.97;;;;;;;20.91;67.14;95457.13;4360719;32;20212;-63
2023/09/19 10:20:50;;;;;;;0.30;0.30;;;;;;;20.88;67.39;95459.75;4324561;32;20190;-63
2023/09/19 10:23:23;;;;;;;0.43;0.43;;;;;;;20.75;66.57;95459.13;4359856;32;20216;-63
2023/09/19 10:25:49;;;;;;;0.43;0.43;;;;;;;20.85;66.06;95472.00;4357940;32;20189;-63
2023/09/19 10:28:22;;;;;;;0.17;0.17;;;;;;;20.80;65.89;95463.41;4349803;32;20204;-63
2023/09/19 10:30:52;;;;;;;0.17;0.17;;;;;;;20.76;66.05;95454.50;4334942;32;20185;-62
2023/09/19 10:33:22;;;;;;;0.33;0.33;;;;;;;20.76;67.11;95459.91;4357938;32;20207;-62
2023/09/19 10:35:59;;;;;;;0.23;0.20;;;;;;;20.71;67.39;95457.47;4343604;32;20185;-63
2023/09/19 10:38:32;;;;;;;0.47;0.47;;;;;;;20.82;65.70;95455.75;4357517;32;20207;-63
2023/09/19 10:41:02;;;;;;;0.50;0.33;;;;;;;20.73;66.15;95469.47;4343335;32;20185;-63
2023/09/19 10:43:32;;;;;;;0.00;0.00;;;;;;;20.70;67.41;95472.87;4341679;32;20206;-63
2023/09/19 10:46:17;;;;;;;0.27;0.27;;;;;;;20.72;67.03;95469.81;4348212;32;20217;-63
2023/09/19 10:48:48;;;;;;;0.17;0.17;;;;;;;20.77;66.77;95466.84;4368323;32;20196;-63
2023/09/19 10:51:24;;;;;;;0.20;0.20;;;;;;;20.88;67.89;95479.41;4362283;32;20196;-63
2023/09/19 10:54:11;;;;;;;0.30;0.30;;;;;;;20.76;65.71;95468.75;4364117;32;20220;-62
2023/09/19 10:56:41;;;;;;;0.20;0.20;;;;;;;20.81;66.06;95475.78;4342972;32;20204;-63
2023/09/19 10:59:09;;;;;;;1.70;0.57;;;;;;;20.85;66.78;95465.84;4355915;32;20197;-63
2023/09/19 11:01:52;;;;;;;0.20;0.20;;;;;;;20.69;67.61;95474.00;4343478;32;20189;-63
2023/09/19 11:04:38;;;;;;;0.20;0.20;;;;;;;20.72;67.92;95467.13;4355867;32;20254;-62
2023/09/19 11:07:15;;;;;;;0.10;0.10;;;;;;;20.72;68.31;95459.03;4338911;32;20197;-63
2023/09/19 11:09:50;;;;;;;0.10;0.10;;;;;;;20.62;68.44;95467.69;4360116;32;20199;-63
2023/09/19 11:12:36;;;;;;;0.43;0.33;;;;;;;20.56;68.86;95469.88;4366243;32;20207;-63
2023/09/19 11:15:10;;;;;;;0.20;0.20;;;;;;;20.47;69.40;95464.69;4306429;32;20197;-63
2023/09/19 11:17:52;;;;;;;0.67;0.40;;;;;;;20.37;69.21;95467.91;4346873;32;20189;-63
2023/09/19 11:20:39;;;;;;;4.63;0.70;;;;;;;20.25;68.95;95465.31;4369013;32;20232;-63
2023/09/19 11:23:17;;;;;;;0.10;0.10;;;;;;;20.32;67.97;95462.00;4361993;32;20193;-63
2023/09/19 11:25:50;;;;;;;0.20;0.20;;;;;;;20.30;67.73;95467.75;4351695;32;20196;-63
2023/09/19 11:28:26;;;;;;;0.20;0.20;;;;;;;20.18;67.87;95459.75;4361054;32;20208;-63
2023/09/19 11:30:55;;;;;;;0.20;0.20;;;;;;;20.13;68.20;95462.75;4332546;32;20192;-64
2023/09/19 11:33:28;;;;;;;0.20;0.20;;;;;;;20.20;68.02;95455.59;4344464;32;20189;-63
2023/09/19 11:36:08;;;;;;;0.20;0.20;;;;;;;20.23;66.59;95456.81;4348830;32;20219;-63
2023/09/19 11:38:46;;;;;;;0.43;0.40;;;;;;;20.27;65.98;95460.38;4340545;32;20216;-63
2023/09/19 11:41:25;;;;;;;0.30;0.30;;;;;;;20.38;64.74;95471.41;4365627;32;20184;-63
2023/09/19 11:44:25;;;;;;;0.17;0.17;;;;;;;20.38;62.84;95460.63;4366337;32;20189;-63
2023/09/19 11:47:00;;;;;;;0.30;0.30;;;;;;;20.40;63.73;95461.03;4343938;32;20192;-63
2023/09/19 11:49:31;;;;;;;0.20;0.20;;;;;;;20.47;62.69;95459.28;4362460;32;20200;-63
2023/09/19 11:52:01;;;;;;;0.10;0.10;;;;;;;20.61;62.50;95460.72;4350051;32;20235;-63
2023/09/19 11:54:31;;;;;;;0.10;0.10;;;;;;;20.56;61.24;95456.41;4351469;32;20203;-63
2023/09/19 11:56:58;;;;;;;0.47;0.47;;;;;;;20.62;60.38;95456.88;4361639;32;20295;-63
2023/09/19 11:59:29;;;;;;;0.10;0.10;;;;;;;20.69;58.48;95462.44;4361411;32;20177;-62
2023/09/19 12:02:03;;;;;;;0.40;0.20;;;;;;;20.75;62.99;95461.03;4315942;32;20251;-63